Allen's Hourly Summary for Monday, March 13, 2017
Hour Temp
(f)
RH
(%)
Solar Rad.
(MJ/m2)
Rainfall
(in)
Wind
(mph)
3/13/2017 12:00 AM 44 79 0 0 0.42
3/13/2017 1:00 AM 46 77 0 0 1.52
3/13/2017 2:00 AM 47 78 0 0 1.15
3/13/2017 3:00 AM 47 79 0 0 1.44
3/13/2017 4:00 AM 47 77 0 0 2
3/13/2017 5:00 AM 47 78 0 0 0.74
3/13/2017 6:00 AM 46 86 0 0 1.58
3/13/2017 7:00 AM 46 88 0 0 1.07
3/13/2017 8:00 AM 46 85 0 0 0.64
3/13/2017 9:00 AM 47 84 0.06 0 0.49
3/13/2017 10:00 AM 47 80 0.27 0 1.21
3/13/2017 11:00 AM 49 74 0.86 0 3.27
3/13/2017 12:00 PM 50 66 0.94 0 4.47
3/13/2017 1:00 PM 52 62 1.59 0 4.73
3/13/2017 2:00 PM 56 46 2.99 0 4.31
3/13/2017 3:00 PM 60 37 2.99 0 4.14
3/13/2017 4:00 PM 60 32 2.62 0 4.75
3/13/2017 5:00 PM 59 31 2.06 0 5.38
3/13/2017 6:00 PM 58 28 1.24 0 5.38
3/13/2017 7:00 PM 55 26 0.21 0 5.9
3/13/2017 8:00 PM 51 26 0.03 0 4.09
3/13/2017 9:00 PM 49 29 0 0 3.25
3/13/2017 10:00 PM 47 33 0 0 3.59
3/13/2017 11:00 PM 45 38 0 0 3.58
Data Summary 50 59 15.86 0.00 2.88